CYOW

Ottawa / Macdonald-Cartier International Airport

Ottawa, , Canada
METAR CYOW 221400Z 32010G16KT 15SM FEW035 SCT230 11/04 A3026 RMK CU2CI1 SLP250
Observed Flight Rules
Sep-22 @ 14:00 UTC (an hour ago) Visual Flight Rules
Wind Visibility Clouds
320° at 10 knots
 Gusting to 16 knots
15 miles
Temperatures Readings
Current 11°C / 52°F
Dewpoint 4°C / 39°F
Humidity 62%
Altimeter 30.26" Hg
Pressure 1025 hPa
Elevation 114
METAR CYOW 221400Z 32010G16KT 15SM FEW035 SCT230 11/04 A3026 RMK CU2CI1 SLP250
Observed Flight Rules
Sep-22 @ 14:00 UTC
(an hour ago)
VFR
Wind Visibility
320° at 10 knots
 Gusting to 16 knots
15 miles
Clouds
Temperature Dewpoint
11°C / 52°F 4°C / 39°F
Humidity Altimeter Pressure
62% 30.26" Hg 1025 hPa